Webster, NY (14580)

7:56 AM EST on March 06, 2015 (GMT -0500)
Webster | Change Station
CLOSE
Current Station
Personal Weather Station
Location: Webster, NY
Elevation: 364 ft
Nearby Weather Stations

Elev 364 ft 43.24 °N, 77.47 °W | Updated 9 minutes ago

Overcast
Overcast
8.4 °F
Feels Like 8 °F
N
0.0
Wind Variable Wind from South

Today
High -- | Low -- °F
--% Chance of Precip.
Yesterday
High -- | Low -- °F
Precip. -- in
6:38 AM 6:04 PM
Waxing Gibbous, 99% visible
Pressure 30.56 in
Visibility 9.0 miles
Clouds Overcast 3300 ft
Windchill 8 °F
Dew Point 0 °F
Humidity 69%
Rainfall in
Snow Depth Not available.
UV 0 out of 12
Pollen .40 out of 12
Air Quality Not available.
Flu Activity Not available.
METAR KROC 061154Z 23009KT 9SM -SN OVC033 M17/M20 A3050 RMK AO2 SNB40 SLP347 BINOVC 4/015 P0000 60000 T11671200 11139 21178 53006

More Conditions Fewer Conditions

Pressure 30.56 in
Visibility 9.0 miles
Clouds Overcast 3300 ft
Windchill 8 °F
Dew Point 0 °F
Humidity 69%
Rainfall in
Snow Depth Not available.
UV 0 out of 12
Pollen .40 out of 12
Air Quality Not available.
Flu Activity Not available.
METAR KROC 061154Z 23009KT 9SM -SN OVC033 M17/M20 A3050 RMK AO2 SNB40 SLP347 BINOVC 4/015 P0000 60000 T11671200 11139 21178 53006

More Conditions Fewer Conditions

10-Day Weather Forecast

Almanac

Astronomy

Mar. 06, 2015 Rise Set
Actual Time
Civil Twilight
Nautical Twilight
Astronomical Twilight
Moon
Length of Visible Light
Length of Day
Tomorrow will be .
, % of the Moon is Illuminated

Today's Extremes

State Highs State Lows

Community

WunderPhotos

Upload Photos

1,803,246 photos uploaded!

WunderBlogs® & News

Nearby

Air Quality

  Air Quality AQ Index Pollutant
Not available.

Snow Depth

Station Depth Elevation

Earthquake Activity

City Distance Mag. Time & Date
Minimum magnitude displayed is 2.5.

Coastal Water Temperatures

Place Temperature

Nearby Weather Stations